Time;durP1;ratioP1;P1;durP2;ratioP2;P2;SDS_P1;SDS_P2;PMS_P1;PMS_P2;Temp;Humidity;BMP_temperature;BMP_pressure;BME280_temperature;BME280_humidity;BME280_pressure;Samples;Min_cycle;Max_cycle;Signal;HPM_P1;HPM_P2
2021/10/10 13:47:26;;;;;;;2.22;1.33;;;21.10;54.90;;;;;;5093998;27;21236;-76
2021/10/10 13:49:54;;;;;;;2.97;1.38;;;18.70;56.80;;;;;;5100458;28;20145;-78
2021/10/10 13:52:19;;;;;;;1.20;1.00;;;18.30;58.90;;;;;;5100541;28;20067;-78
2021/10/10 13:54:46;;;;;;;3.72;2.22;;;17.70;59.60;;;;;;5085224;28;20669;-76
2021/10/10 13:57:12;;;;;;;4.55;1.58;;;17.40;60.90;;;;;;5082935;28;20437;-76
2021/10/10 13:59:38;;;;;;;5.38;2.22;;;16.80;61.50;;;;;;5084518;28;20024;-74
2021/10/10 14:02:04;;;;;;;2.65;1.67;;;16.30;63.00;;;;;;5084772;28;20025;-76
2021/10/10 14:04:30;;;;;;;3.50;1.48;;;16.10;63.50;;;;;;5084589;28;20032;-77
2021/10/10 14:06:56;;;;;;;3.25;1.63;;;15.90;64.50;;;;;;5085100;28;20033;-75
2021/10/10 14:09:22;;;;;;;1.98;1.65;;;16.00;64.20;;;;;;5087010;28;20470;-76
2021/10/10 14:11:48;;;;;;;1.92;1.38;;;15.90;63.70;;;;;;5087963;28;20032;-75
2021/10/10 14:14:14;;;;;;;1.80;1.05;;;15.80;64.30;;;;;;5086817;28;20028;-76
2021/10/10 14:16:39;;;;;;;2.80;1.60;;;16.20;63.90;;;;;;5087480;28;20028;-75
2021/10/10 14:19:05;;;;;;;2.63;1.52;;;15.70;63.90;;;;;;5086958;28;20021;-76
2021/10/10 14:21:31;;;;;;;1.10;1.00;;;15.70;63.90;;;;;;5087687;28;20390;-74
2021/10/10 14:23:56;;;;;;;1.55;1.45;;;15.00;65.10;;;;;;5087023;28;20021;-77
2021/10/10 14:26:22;;;;;;;1.73;1.45;;;14.70;66.30;;;;;;5086923;28;20952;-75
2021/10/10 14:28:48;;;;;;;1.90;1.70;;;14.70;66.40;;;;;;5079966;28;20024;-76
2021/10/10 14:31:15;;;;;;;2.75;1.90;;;14.80;67.10;;;;;;5085734;28;20027;-76
2021/10/10 14:33:41;;;;;;;2.78;1.60;;;14.60;67.20;;;;;;5086436;28;20490;-75
2021/10/10 14:36:07;;;;;;;2.05;1.80;;;14.50;67.60;;;;;;5087445;28;20009;-75
2021/10/10 14:38:33;;;;;;;2.00;1.33;;;14.30;68.90;;;;;;5084974;28;20394;-76
2021/10/10 14:41:46;;;;;;;1.55;1.42;;;14.20;68.70;;;;;;5087238;28;20474;-76
2021/10/10 14:44:02;;;;;;;3.00;2.67;;;14.00;67.90;;;;;;5079538;28;21707;-76
2021/10/10 14:46:29;;;;;;;3.63;1.73;;;13.60;69.80;;;;;;5086801;28;20072;-76
2021/10/10 14:48:55;;;;;;;4.63;1.67;;;13.40;70.00;;;;;;5084372;28;20832;-76
2021/10/10 14:51:20;;;;;;;3.22;1.80;;;13.30;70.30;;;;;;5085760;28;20122;-77
2021/10/10 14:53:46;;;;;;;2.25;1.50;;;13.30;70.00;;;;;;5086429;28;20031;-76
2021/10/10 14:56:13;;;;;;;2.65;1.80;;;13.30;70.00;;;;;;5075334;28;20056;-75
2021/10/10 14:58:39;;;;;;;9.25;1.77;;;13.30;71.90;;;;;;5067973;28;20027;-77
2021/10/10 15:01:05;;;;;;;1.80;1.58;;;13.20;71.30;;;;;;5070840;28;20028;-75
2021/10/10 15:03:30;;;;;;;4.00;2.05;;;13.10;71.40;;;;;;5069748;28;20082;-77
2021/10/10 15:05:57;;;;;;;1.88;1.40;;;13.10;71.20;;;;;;5072593;28;20032;-76
2021/10/10 15:08:26;;;;;;;1.52;1.42;;;13.00;70.60;;;;;;5072209;28;20021;-76
2021/10/10 15:10:52;;;;;;;1.92;1.73;;;12.90;70.80;;;;;;5070107;28;20063;-77
2021/10/10 15:13:17;;;;;;;2.70;1.65;;;12.70;71.10;;;;;;5068576;28;20455;-77
2021/10/10 15:15:43;;;;;;;1.45;1.27;;;12.70;72.10;;;;;;5072165;28;20081;-80
2021/10/10 15:18:09;;;;;;;1.85;1.75;;;12.70;71.40;;;;;;5074425;28;20025;-77
2021/10/10 15:20:35;;;;;;;2.70;1.15;;;12.50;74.00;;;;;;5073148;28;20097;-76
2021/10/10 15:23:02;;;;;;;2.78;2.15;;;12.50;73.00;;;;;;5072730;28;20028;-78
2021/10/10 15:25:28;;;;;;;4.50;1.48;;;12.50;73.60;;;;;;5074042;28;20054;-84
2021/10/10 15:27:54;;;;;;;2.75;1.88;;;12.50;72.40;;;;;;5072522;28;20151;-75
2021/10/10 15:30:19;;;;;;;2.25;1.92;;;12.60;73.40;;;;;;5072608;28;20025;-77
2021/10/10 15:32:46;;;;;;;1.95;1.60;;;12.60;73.40;;;;;;5071587;28;20593;-81
2021/10/10 15:35:12;;;;;;;1.75;1.40;;;12.50;73.50;;;;;;5072666;28;20052;-78
2021/10/10 15:37:38;;;;;;;1.75;1.50;;;12.40;73.40;;;;;;5072608;28;20031;-80
2021/10/10 15:40:04;;;;;;;2.63;2.28;;;12.40;73.50;;;;;;5074101;28;20088;-82
2021/10/10 15:42:35;;;;;;;1.23;1.00;;;12.40;74.00;;;;;;5072127;28;20524;-82
2021/10/10 15:45:01;;;;;;;3.95;1.40;;;12.30;73.50;;;;;;5069608;28;20029;-89
2021/10/10 15:47:28;;;;;;;1.60;1.35;;;12.20;74.10;;;;;;5073788;28;20048;-81
2021/10/10 15:49:54;;;;;;;1.77;1.45;;;12.20;74.50;;;;;;5074226;28;20048;-87
2021/10/10 15:52:19;;;;;;;1.83;1.20;;;12.20;74.40;;;;;;5072850;28;20094;-85
2021/10/10 15:54:45;;;;;;;3.38;1.85;;;12.10;74.40;;;;;;5071989;28;20094;-77
2021/10/10 15:57:11;;;;;;;1.60;1.50;;;12.10;75.60;;;;;;5071374;28;20021;-82
2021/10/10 15:59:36;;;;;;;1.60;1.35;;;12.10;74.90;;;;;;5060449;28;20116;-79
2021/10/10 16:02:03;;;;;;;1.60;1.27;;;12.10;75.30;;;;;;5065968;28;20017;-77
2021/10/10 16:04:29;;;;;;;1.98;1.40;;;12.00;75.50;;;;;;5081247;28;20108;-77
2021/10/10 16:06:54;;;;;;;1.33;1.23;;;12.00;75.80;;;;;;5068096;28;20119;-75
2021/10/10 16:09:20;;;;;;;2.10;1.65;;;11.90;76.30;;;;;;5066548;28;20035;-74
2021/10/10 16:11:46;;;;;;;1.60;1.30;;;11.80;77.10;;;;;;5067849;28;20027;-74
2021/10/10 16:14:13;;;;;;;1.33;1.23;;;11.70;77.70;;;;;;5065979;28;20059;-77
2021/10/10 16:16:39;;;;;;;1.58;1.48;;;11.70;78.20;;;;;;5068797;28;20048;-78
2021/10/10 16:19:07;;;;;;;1.70;1.60;;;11.70;78.90;;;;;;5066100;28;20561;-76
2021/10/10 16:21:35;;;;;;;14.27;9.52;;;11.60;79.20;;;;;;5068187;28;20047;-76
2021/10/10 16:24:01;;;;;;;4.40;3.47;;;11.50;79.60;;;;;;5070185;28;20024;-77
2021/10/10 16:26:27;;;;;;;2.28;1.70;;;11.40;80.30;;;;;;5071557;28;20024;-75
2021/10/10 16:28:53;;;;;;;1.70;1.50;;;11.30;81.00;;;;;;5070868;28;20008;-77
2021/10/10 16:31:19;;;;;;;1.33;1.20;;;11.30;82.10;;;;;;5069380;28;20033;-77
2021/10/10 16:33:48;;;;;;;4.88;3.78;;;11.20;83.50;;;;;;5070942;28;20107;-76
2021/10/10 16:36:25;;;;;;;4.63;4.22;;;11.20;83.60;;;;;;5070461;28;20032;-76
2021/10/10 16:38:54;;;;;;;3.20;2.63;;;11.20;83.70;;;;;;5070974;28;20083;-77
2021/10/10 16:43:47;;;;;;;4.95;3.95;;;11.10;84.20;;;;;;5071001;28;20063;-77
2021/10/10 16:46:13;;;;;;;2.25;2.05;;;11.10;86.20;;;;;;5069409;28;20052;-77
2021/10/10 16:48:39;;;;;;;2.15;1.92;;;11.00;84.90;;;;;;5070863;28;20016;-76
2021/10/10 16:51:05;;;;;;;3.03;1.80;;;11.00;84.30;;;;;;5070231;28;20054;-76
2021/10/10 16:53:32;;;;;;;2.90;1.95;;;11.10;83.80;;;;;;5067569;28;20470;-77
2021/10/10 16:55:58;;;;;;;2.38;1.95;;;11.10;83.20;;;;;;5069784;28;20039;-77
2021/10/10 16:58:24;;;;;;;2.13;1.75;;;11.10;82.50;;;;;;5058532;28;20032;-77
2021/10/10 17:00:50;;;;;;;1.98;1.80;;;11.10;82.50;;;;;;5037850;28;20044;-76
2021/10/10 17:03:17;;;;;;;2.55;2.33;;;11.20;82.30;;;;;;5043957;28;20025;-76
2021/10/10 17:05:43;;;;;;;2.67;2.17;;;11.20;82.20;;;;;;5051031;28;20023;-75
2021/10/10 17:08:10;;;;;;;3.45;2.30;;;11.20;81.70;;;;;;5050717;28;20025;-76
2021/10/10 17:10:39;;;;;;;2.35;1.98;;;11.20;81.80;;;;;;5043365;28;20474;-79
2021/10/10 17:13:05;;;;;;;7.13;2.30;;;11.10;81.80;;;;;;5046426;28;20070;-77
2021/10/10 17:15:31;;;;;;;2.92;2.00;;;11.10;83.00;;;;;;5045124;28;20029;-78
2021/10/10 17:17:57;;;;;;;2.20;2.00;;;11.10;82.90;;;;;;5037754;28;20054;-79
2021/10/10 17:20:23;;;;;;;2.58;2.33;;;11.10;82.60;;;;;;5044428;28;20133;-77
2021/10/10 17:22:48;;;;;;;6.65;3.47;;;11.00;83.00;;;;;;5048171;28;20021;-80
2021/10/10 17:25:14;;;;;;;4.15;2.50;;;11.10;83.00;;;;;;5045623;28;20029;-77
2021/10/10 17:27:40;;;;;;;4.00;2.72;;;11.00;83.30;;;;;;5048507;28;20025;-81
2021/10/10 17:30:06;;;;;;;2.65;2.30;;;11.00;83.70;;;;;;5055714;28;20036;-82
2021/10/10 17:32:33;;;;;;;5.85;2.22;;;10.90;83.50;;;;;;5051752;28;20079;-84
2021/10/10 17:34:58;;;;;;;4.15;2.60;;;11.00;83.70;;;;;;5047325;28;20048;-79
2021/10/10 17:37:25;;;;;;;3.55;2.38;;;10.90;84.60;;;;;;5044879;28;20048;-83
2021/10/10 17:39:51;;;;;;;2.50;2.30;;;11.00;83.80;;;;;;5051795;28;20029;-78
2021/10/10 17:42:16;;;;;;;3.60;2.75;;;11.00;83.70;;;;;;5047945;28;20687;-78
2021/10/10 17:44:42;;;;;;;2.50;2.30;;;11.00;84.40;;;;;;5047976;28;20031;-82
2021/10/10 17:47:08;;;;;;;3.55;2.88;;;11.00;83.50;;;;;;5045222;28;20071;-78
2021/10/10 17:49:33;;;;;;;2.92;2.45;;;11.10;84.00;;;;;;5045910;28;20060;-77
2021/10/10 17:51:59;;;;;;;3.60;2.40;;;11.10;83.40;;;;;;5036677;28;20037;-79
2021/10/10 17:54:25;;;;;;;2.72;2.42;;;11.20;83.70;;;;;;5050652;28;20025;-85
2021/10/10 17:56:52;;;;;;;3.17;2.60;;;11.10;83.90;;;;;;5046325;28;20391;-82
2021/10/10 18:10:55;;;;;;;5.10;2.88;;;11.00;85.00;;;;;;5046944;28;20040;-78
2021/10/10 18:13:21;;;;;;;2.75;2.40;;;11.00;84.20;;;;;;5049085;28;20021;-78
2021/10/10 18:15:47;;;;;;;3.53;2.15;;;11.00;84.10;;;;;;5049839;28;20079;-77
2021/10/10 18:18:12;;;;;;;2.85;2.50;;;11.00;84.70;;;;;;5050550;28;20021;-79
2021/10/10 18:20:38;;;;;;;2.70;2.28;;;11.00;84.00;;;;;;5050234;28;20078;-78
2021/10/10 18:23:04;;;;;;;2.05;1.90;;;10.90;84.40;;;;;;5050095;28;20122;-78
2021/10/10 18:25:30;;;;;;;2.70;2.10;;;10.90;85.20;;;;;;5047123;28;20423;-77
2021/10/10 18:27:56;;;;;;;3.03;2.00;;;10.90;84.80;;;;;;5034577;28;20040;-77
2021/10/10 18:30:22;;;;;;;3.10;2.20;;;10.90;84.60;;;;;;5041967;28;20036;-77
2021/10/10 18:32:49;;;;;;;2.65;1.70;;;10.90;84.60;;;;;;5044230;28;20096;-77
2021/10/10 18:35:15;;;;;;;2.55;2.35;;;10.90;84.40;;;;;;5054214;28;20024;-79
2021/10/10 18:37:41;;;;;;;2.45;2.20;;;10.90;84.90;;;;;;5046753;28;20021;-77
2021/10/10 18:40:09;;;;;;;2.47;2.17;;;10.80;85.10;;;;;;5054678;28;20020;-79
2021/10/10 18:42:35;;;;;;;2.58;1.75;;;10.80;84.70;;;;;;5053471;28;20078;-83
2021/10/10 18:45:00;;;;;;;2.10;1.90;;;10.80;84.80;;;;;;5046111;28;20116;-81
2021/10/10 18:47:26;;;;;;;2.30;1.42;;;10.80;84.50;;;;;;5037333;28;20052;-83
2021/10/10 18:49:52;;;;;;;2.20;1.95;;;10.80;84.40;;;;;;5054481;28;20175;-84
2021/10/10 18:52:17;;;;;;;1.98;1.80;;;10.80;85.00;;;;;;5039452;28;20057;-76
2021/10/10 18:54:44;;;;;;;3.53;1.67;;;10.80;84.70;;;;;;5053258;28;20027;-77
2021/10/10 18:57:13;;;;;;;2.13;1.92;;;10.80;84.60;;;;;;5052673;28;20017;-79
2021/10/10 18:59:42;;;;;;;1.95;1.73;;;10.80;84.60;;;;;;5047776;28;20025;-78
2021/10/10 19:02:09;;;;;;;2.13;1.70;;;10.80;85.30;;;;;;5048412;28;20049;-78
2021/10/10 19:04:35;;;;;;;3.55;1.65;;;10.80;84.50;;;;;;5053496;28;20111;-80
2021/10/10 19:07:01;;;;;;;1.88;1.58;;;10.80;84.70;;;;;;5053856;28;20547;-80
2021/10/10 19:09:29;;;;;;;1.98;1.77;;;10.80;84.90;;;;;;5054224;28;20049;-85
2021/10/10 19:11:56;;;;;;;1.60;1.50;;;10.80;84.90;;;;;;5052698;28;20024;-77
2021/10/10 19:14:21;;;;;;;45.70;19.08;;;10.80;84.40;;;;;;5052932;28;20391;-82
2021/10/10 19:16:47;;;;;;;2.28;1.65;;;10.80;84.60;;;;;;5053444;28;20025;-75
2021/10/10 19:19:13;;;;;;;1.27;1.10;;;10.80;84.90;;;;;;5052733;28;20467;-77
2021/10/10 19:21:39;;;;;;;2.03;1.65;;;10.80;84.50;;;;;;5053434;28;20033;-77
2021/10/10 19:24:05;;;;;;;1.70;1.30;;;10.70;85.20;;;;;;5052717;28;20480;-77
2021/10/10 19:26:30;;;;;;;2.13;1.55;;;10.70;85.00;;;;;;5052974;28;20037;-80
2021/10/10 19:28:56;;;;;;;1.67;1.40;;;10.70;85.20;;;;;;5052722;28;20485;-78
2021/10/10 19:31:23;;;;;;;1.48;1.25;;;10.70;85.10;;;;;;5053096;28;20021;-76
2021/10/10 19:33:48;;;;;;;1.55;1.45;;;10.70;85.20;;;;;;5052575;28;20120;-77
2021/10/10 19:36:14;;;;;;;1.58;1.42;;;10.70;85.30;;;;;;5053211;28;20097;-76
2021/10/10 19:38:40;;;;;;;4.85;1.40;;;10.70;84.80;;;;;;5052504;28;20119;-78
2021/10/10 19:41:05;;;;;;;2.42;1.25;;;10.70;85.10;;;;;;5052000;28;20360;-77
2021/10/10 19:43:31;;;;;;;1.70;1.25;;;10.70;85.10;;;;;;5052263;28;20078;-78
2021/10/10 19:45:57;;;;;;;2.20;1.67;;;10.70;85.20;;;;;;5051834;28;20120;-78
2021/10/10 19:48:23;;;;;;;2.08;1.50;;;10.70;84.70;;;;;;5041877;28;20033;-77
2021/10/10 19:50:48;;;;;;;2.75;1.52;;;10.70;85.20;;;;;;5052841;28;20067;-77
2021/10/10 19:53:14;;;;;;;1.40;1.30;;;10.70;85.10;;;;;;5052187;28;20029;-76
2021/10/10 19:55:40;;;;;;;1.20;1.10;;;10.70;84.80;;;;;;5042610;28;20017;-77
2021/10/10 19:58:06;;;;;;;1.85;1.58;;;10.70;85.10;;;;;;5051715;28;20035;-75
2021/10/10 20:00:32;;;;;;;1.58;1.48;;;10.70;85.80;;;;;;5051963;28;20107;-74
2021/10/10 20:02:58;;;;;;;3.85;1.73;;;10.70;85.20;;;;;;5051470;28;20079;-74
2021/10/10 20:05:23;;;;;;;1.70;1.58;;;10.70;85.10;;;;;;5051908;28;20033;-76
2021/10/10 20:07:50;;;;;;;1.80;1.17;;;10.70;85.00;;;;;;5045808;28;20029;-74
2021/10/10 20:10:16;;;;;;;2.05;1.55;;;10.70;85.10;;;;;;5043604;28;20127;-74
2021/10/10 20:12:42;;;;;;;1.33;1.23;;;10.70;85.70;;;;;;5048193;28;20142;-75
2021/10/10 20:15:08;;;;;;;3.05;1.33;;;10.70;85.30;;;;;;5048534;28;20455;-75
2021/10/10 20:17:35;;;;;;;1.40;1.30;;;10.60;85.50;;;;;;5038333;28;20029;-75
2021/10/10 20:20:02;;;;;;;1.63;1.15;;;10.70;85.00;;;;;;5044925;28;20471;-75
2021/10/10 20:22:28;;;;;;;1.70;1.27;;;10.70;85.10;;;;;;5048179;28;20037;-74
2021/10/10 20:24:57;;;;;;;1.10;1.10;;;10.70;85.00;;;;;;5046920;28;20111;-75
2021/10/10 20:27:23;;;;;;;1.08;0.98;;;10.80;85.30;;;;;;5048303;28;20249;-75
2021/10/10 20:29:50;;;;;;;1.20;1.10;;;10.70;84.60;;;;;;5046968;28;20082;-73
2021/10/10 20:32:17;;;;;;;1.85;1.42;;;10.80;85.50;;;;;;5048643;28;20029;-76
2021/10/10 20:34:43;;;;;;;1.23;1.13;;;10.70;84.40;;;;;;5048995;28;20032;-75
2021/10/10 20:37:10;;;;;;;1.40;1.30;;;10.70;84.10;;;;;;5048714;28;20033;-74
2021/10/10 20:39:36;;;;;;;2.05;1.20;;;10.80;84.70;;;;;;5047873;28;20040;-75
2021/10/10 20:42:01;;;;;;;1.02;1.00;;;10.80;84.10;;;;;;5047322;28;20033;-75
2021/10/10 20:44:27;;;;;;;1.20;1.10;;;10.90;83.80;;;;;;5046636;28;20025;-74
2021/10/10 20:46:54;;;;;;;1.27;0.98;;;10.90;83.70;;;;;;5047332;28;20048;-74
2021/10/10 20:49:20;;;;;;;1.30;1.20;;;10.80;83.70;;;;;;5046983;28;20025;-74
2021/10/10 20:51:46;;;;;;;0.95;0.90;;;10.80;83.50;;;;;;5039027;28;20056;-75
2021/10/10 20:54:15;;;;;;;2.15;1.30;;;10.80;83.50;;;;;;5039280;28;20480;-74
2021/10/10 20:56:41;;;;;;;1.13;1.00;;;10.80;83.90;;;;;;5037448;28;20434;-75
2021/10/10 20:59:09;;;;;;;0.77;0.77;;;10.80;83.80;;;;;;5042281;28;20444;-74
2021/10/10 21:01:35;;;;;;;2.45;1.15;;;10.70;83.90;;;;;;5042543;28;20053;-74
2021/10/10 21:04:00;;;;;;;1.33;1.23;;;10.80;84.40;;;;;;5047342;28;20116;-74
2021/10/10 21:06:27;;;;;;;0.95;0.90;;;10.80;84.40;;;;;;5041661;28;20051;-75
2021/10/10 21:08:52;;;;;;;1.25;1.15;;;10.70;83.90;;;;;;5041200;28;20483;-74
2021/10/10 21:11:18;;;;;;;1.25;1.00;;;10.70;84.30;;;;;;5048113;28;20037;-74
2021/10/10 21:13:45;;;;;;;0.90;0.90;;;10.70;84.30;;;;;;5046634;28;20031;-74
2021/10/10 21:16:11;;;;;;;0.70;0.63;;;10.70;84.40;;;;;;5045764;28;20021;-74
2021/10/10 21:18:36;;;;;;;1.15;1.05;;;10.70;83.80;;;;;;5044824;28;20479;-74
2021/10/10 21:21:02;;;;;;;0.80;0.80;;;10.70;84.40;;;;;;5037302;28;20068;-74
2021/10/10 21:23:28;;;;;;;1.52;1.08;;;10.70;84.40;;;;;;5042838;28;20039;-74
2021/10/10 21:25:54;;;;;;;1.02;0.98;;;10.70;83.70;;;;;;5045054;28;20025;-74
2021/10/10 21:35:49;;;;;;;0.98;0.98;;;10.80;83.70;;;;;;5046219;28;20119;-74
2021/10/10 21:38:15;;;;;;;1.27;1.17;;;10.80;83.50;;;;;;5043192;28;20071;-74
2021/10/10 21:40:40;;;;;;;0.80;0.80;;;10.80;83.30;;;;;;5044482;28;20094;-74
2021/10/10 21:43:06;;;;;;;1.38;1.10;;;10.80;83.80;;;;;;5043642;28;20028;-74
2021/10/10 21:45:32;;;;;;;0.85;0.85;;;10.90;83.50;;;;;;5040401;28;20029;-74
2021/10/10 21:47:58;;;;;;;1.15;0.90;;;10.90;83.70;;;;;;5048866;28;20031;-74
2021/10/10 21:50:24;;;;;;;2.05;1.45;;;10.80;83.40;;;;;;5044815;28;20100;-75
2021/10/10 21:52:49;;;;;;;1.35;0.90;;;10.80;83.40;;;;;;5037683;28;20017;-74
2021/10/10 21:55:15;;;;;;;1.58;1.30;;;10.90;83.50;;;;;;5046097;28;20033;-74
2021/10/10 21:57:41;;;;;;;1.48;1.33;;;10.90;83.50;;;;;;5047397;28;20109;-74
2021/10/10 22:00:13;;;;;;;1.30;0.90;;;10.90;83.80;;;;;;5047869;28;20028;-74
2021/10/10 22:02:39;;;;;;;;;;;10.90;83.40;;;;;;5050537;28;20029;-74
2021/10/10 22:05:06;;;;;;;1.50;1.10;;;10.90;84.00;;;;;;5048711;28;19955;-74
2021/10/10 22:07:32;;;;;;;1.23;1.13;;;10.90;84.20;;;;;;5049940;28;20139;-74
2021/10/10 22:09:58;;;;;;;1.10;1.02;;;10.90;83.50;;;;;;5054295;28;20076;-74
2021/10/10 22:12:24;;;;;;;1.45;1.25;;;10.90;84.10;;;;;;5054819;28;20033;-74
2021/10/10 22:14:50;;;;;;;1.45;1.10;;;10.90;83.90;;;;;;5052012;28;20479;-74
2021/10/10 22:17:16;;;;;;;2.28;1.27;;;10.90;83.70;;;;;;5047715;28;20040;-74
2021/10/10 22:19:41;;;;;;;1.00;0.93;;;10.80;84.00;;;;;;5052820;28;20033;-74
2021/10/10 22:22:08;;;;;;;1.20;1.10;;;10.80;83.90;;;;;;5051637;28;20017;-74
2021/10/10 22:24:50;;;;;;;1.08;1.00;;;10.80;84.10;;;;;;5050724;28;20027;-74
2021/10/10 22:27:34;;;;;;;1.50;1.40;;;10.80;84.30;;;;;;5045563;28;20041;-74
2021/10/10 22:32:44;;;;;;;1.58;1.48;;;10.80;84.10;;;;;;5053516;28;20063;-75
2021/10/10 22:35:09;;;;;;;2.08;1.40;;;10.80;84.30;;;;;;5053984;28;20444;-75
2021/10/10 22:37:35;;;;;;;2.35;1.60;;;10.90;84.30;;;;;;5053871;28;20021;-75
2021/10/10 22:40:01;;;;;;;4.05;1.50;;;10.90;84.30;;;;;;5050733;28;20111;-74
2021/10/10 22:42:26;;;;;;;3.95;1.27;;;11.00;84.20;;;;;;5045615;28;20479;-74
2021/10/10 22:44:52;;;;;;;2.28;1.58;;;11.00;84.30;;;;;;5052824;28;20070;-74
2021/10/10 22:47:18;;;;;;;1.45;1.23;;;11.00;84.30;;;;;;5048872;28;20076;-75
2021/10/10 22:49:43;;;;;;;1.40;1.30;;;11.00;84.00;;;;;;5053315;28;20025;-75
2021/10/10 22:52:09;;;;;;;1.33;1.23;;;11.00;83.40;;;;;;5049238;28;20071;-75
2021/10/10 22:54:35;;;;;;;1.20;1.10;;;11.00;83.60;;;;;;5052724;28;20108;-75
2021/10/10 22:57:01;;;;;;;1.58;1.10;;;11.00;83.70;;;;;;5054091;28;20135;-75
2021/10/10 22:59:27;;;;;;;1.20;1.10;;;11.00;84.00;;;;;;5053051;28;20191;-75
2021/10/10 23:01:52;;;;;;;1.23;1.02;;;11.00;83.70;;;;;;5049604;28;20104;-74
2021/10/10 23:04:18;;;;;;;1.33;1.20;;;11.00;83.50;;;;;;5051665;28;20017;-74
2021/10/10 23:06:44;;;;;;;0.90;0.90;;;11.00;84.00;;;;;;5050774;28;20033;-74
2021/10/10 23:09:10;;;;;;;2.92;1.17;;;11.00;83.60;;;;;;5051833;28;20549;-74
2021/10/10 23:11:35;;;;;;;1.60;1.15;;;11.00;84.00;;;;;;5053094;28;20068;-75
2021/10/10 23:14:01;;;;;;;1.38;1.27;;;11.00;83.70;;;;;;5051183;28;20378;-74
2021/10/10 23:16:27;;;;;;;1.75;1.63;;;11.00;83.70;;;;;;5050752;28;20033;-74
2021/10/10 23:18:52;;;;;;;3.58;1.20;;;11.00;83.50;;;;;;5048880;28;20018;-74
2021/10/10 23:21:18;;;;;;;1.45;1.35;;;11.00;83.80;;;;;;5051590;28;20025;-74
2021/10/10 23:23:44;;;;;;;1.40;1.30;;;11.00;83.60;;;;;;5050586;28;20056;-75
2021/10/10 23:26:09;;;;;;;1.52;1.33;;;11.00;83.30;;;;;;5051970;28;20032;-74
2021/10/10 23:28:35;;;;;;;1.17;1.15;;;11.10;83.80;;;;;;5050842;28;20017;-75
2021/10/10 23:31:01;;;;;;;2.50;1.38;;;11.10;83.70;;;;;;5046666;28;20024;-74
2021/10/10 23:33:26;;;;;;;2.03;1.52;;;11.10;83.70;;;;;;5050655;28;20112;-75
2021/10/10 23:35:52;;;;;;;1.27;1.17;;;11.10;83.40;;;;;;5051851;28;20395;-74
2021/10/10 23:38:18;;;;;;;1.20;1.10;;;11.10;84.30;;;;;;5052409;28;20032;-75
2021/10/10 23:40:44;;;;;;;1.30;1.20;;;11.10;83.40;;;;;;5052512;28;20033;-74
2021/10/10 23:43:10;;;;;;;1.20;1.10;;;11.20;83.10;;;;;;5052706;28;20031;-75
2021/10/10 23:45:37;;;;;;;1.35;1.25;;;11.20;83.10;;;;;;5049990;28;20038;-74
2021/10/10 23:48:03;;;;;;;2.15;1.30;;;11.20;83.20;;;;;;5049866;28;20053;-74
2021/10/10 23:50:30;;;;;;;1.60;1.50;;;11.30;82.90;;;;;;5049514;28;20130;-74
2021/10/10 23:52:55;;;;;;;2.08;1.35;;;11.30;82.10;;;;;;5051015;28;20379;-74
2021/10/10 23:55:21;;;;;;;1.25;1.15;;;11.30;82.70;;;;;;5051070;28;20021;-74
2021/10/10 23:57:47;;;;;;;1.10;0.93;;;11.40;82.20;;;;;;5049011;28;20021;-74
